Archival Weather

Chicago O'Hare International

Chicago, Illinois (KORD)

Report from: Friday, December 23, 2022 3:51 AM CST
Current time: Monday, June 17, 2024 2:49 AM CDT

Current weather – Weather history – Daily summaries
Weather forecast

Present weatherBlowing snow
Temperature-22.2°C (-8.0°F)
Wind chill-36.0°C (-32.8°F)
Dew point-27.2°C (-17.0°F)
Winds 18 kts (9.3 m/s, 20.7 mph) West (280°)
Wind gusts 33 kts (17 m/s, 38 mph)
Peak wind 33 kts (17 m/s, 38 mph) West (280°) at 09:42
Visibility5 mi. (8 km)
Clouds Ceiling: Overcast 1,900 ft. (579 m)
Altimeter29.82 in.Hg (1010 mB)
Relative humidity64 %
Density altitude-4,716 ft. (-1,437 m)
Sea-level pressure101.2 kPa (1012 mB, 29.87 in.Hg)
Remarks System requires maintenance
Automated weather observing station with precipitation discriminator
Flight conditions Marginal Visual Meteorological Conditions
Raw dataKORD 230951Z 28018G33KT 5SM BLSN OVC019 M22/M27 A2982 RMK AO2 PK WND 28033/0942 SLP116 T12221272 $
An error has occurred. This application may no longer respond until reloaded. Reload 🗙